createdAt,value
2023-02-07T01:58:42.382Z,20.58
2023-02-07T01:59:42.420Z,20.60
2023-02-07T02:00:42.444Z,20.63
2023-02-07T02:01:42.470Z,20.57
2023-02-07T02:02:42.493Z,20.63
2023-02-07T02:03:42.477Z,20.55
2023-02-07T02:04:42.463Z,20.56
2023-02-07T02:05:42.517Z,20.63
2023-02-07T02:06:42.494Z,20.51
2023-02-07T02:07:42.518Z,20.54
2023-02-07T02:08:42.511Z,20.55
2023-02-07T02:09:42.552Z,20.55
2023-02-07T02:10:42.554Z,20.57
2023-02-07T02:11:42.581Z,20.57
2023-02-07T02:12:42.558Z,20.57
2023-02-07T02:13:42.637Z,20.54
2023-02-07T02:14:42.642Z,20.52
2023-02-07T02:15:42.716Z,20.61
2023-02-07T02:16:42.659Z,20.55
2023-02-07T02:17:42.699Z,20.49
2023-02-07T02:18:42.654Z,20.49
2023-02-07T02:19:42.659Z,20.51
2023-02-07T02:20:42.690Z,20.52
2023-02-07T02:21:42.698Z,20.49
2023-02-07T02:22:42.756Z,20.49
2023-02-07T02:23:42.754Z,20.51
2023-02-07T02:24:42.726Z,20.46
2023-02-07T02:25:42.758Z,20.52
2023-02-07T02:26:42.769Z,20.46
2023-02-07T02:27:42.783Z,20.51
2023-02-07T02:28:42.808Z,20.45
2023-02-07T02:29:42.867Z,20.45
2023-02-07T02:30:42.828Z,20.46
2023-02-07T02:31:42.918Z,20.51
2023-02-07T02:32:42.889Z,20.46
2023-02-07T02:33:42.888Z,20.45
2023-02-07T02:34:42.879Z,20.51
2023-02-07T02:35:42.902Z,20.46
2023-02-07T02:36:42.902Z,20.46
2023-02-07T02:37:42.889Z,20.46
2023-02-07T02:38:42.953Z,20.48
2023-02-07T02:39:42.954Z,20.48
2023-02-07T02:40:42.964Z,20.40
2023-02-07T02:41:42.969Z,20.45
2023-02-07T02:42:42.989Z,20.43
2023-02-07T02:43:43.026Z,20.43
2023-02-07T02:44:43.067Z,20.43
2023-02-07T02:45:43.001Z,20.45
2023-02-07T02:46:43.072Z,20.40
2023-02-07T02:47:43.070Z,20.40
2023-02-07T02:48:43.069Z,20.43
2023-02-07T02:49:43.105Z,20.45
2023-02-07T02:50:43.106Z,20.40
2023-02-07T02:51:43.132Z,20.43
2023-02-07T02:52:50.670Z,20.40
2023-02-07T02:53:44.152Z,20.40
2023-02-07T02:54:43.134Z,20.35
2023-02-07T02:55:43.147Z,20.40
2023-02-07T02:56:43.108Z,20.36
2023-02-07T02:57:43.093Z,20.39
2023-02-07T02:58:43.064Z,20.39
2023-02-07T02:59:43.064Z,20.39
2023-02-07T03:00:43.087Z,20.42
2023-02-07T03:01:43.121Z,20.36
2023-02-07T03:02:43.063Z,20.40
2023-02-07T03:03:43.022Z,20.36
2023-02-07T03:04:43.064Z,20.34
2023-02-07T03:05:43.025Z,20.39
2023-02-07T03:06:43.022Z,20.33
2023-02-07T03:07:43.023Z,20.36
2023-02-07T03:08:43.008Z,20.31
2023-02-07T03:09:43.042Z,20.39
2023-02-07T03:10:43.041Z,20.35
2023-02-07T03:11:42.991Z,20.36
2023-02-07T03:12:43.050Z,20.36
2023-02-07T03:13:43.001Z,20.30
2023-02-07T03:14:43.024Z,20.33
2023-02-07T03:15:42.973Z,20.33
2023-02-07T03:16:42.942Z,20.34
2023-02-07T03:17:42.986Z,20.30
2023-02-07T03:18:42.993Z,20.29
2023-02-07T03:19:42.965Z,20.27
2023-02-07T03:20:42.958Z,20.23
2023-02-07T03:21:42.951Z,20.23
2023-02-07T03:22:42.922Z,20.24
2023-02-07T03:23:42.921Z,20.24
2023-02-07T03:24:42.934Z,20.20
2023-02-07T03:25:42.908Z,20.22
2023-02-07T03:26:42.879Z,20.20
2023-02-07T03:27:42.864Z,20.19
2023-02-07T03:28:42.865Z,20.20
2023-02-07T03:29:42.899Z,20.14
2023-02-07T03:30:42.932Z,20.10
2023-02-07T03:31:42.928Z,20.07
2023-02-07T03:32:42.907Z,20.10
2023-02-07T03:33:42.997Z,20.03
2023-02-07T03:34:43.028Z,19.97
2023-02-07T03:35:43.134Z,20.04
2023-02-07T03:36:43.184Z,19.97
2023-02-07T03:37:43.230Z,19.99
2023-02-07T03:38:43.290Z,20.00
2023-02-07T03:39:43.336Z,19.94
2023-02-07T03:40:43.446Z,19.93
2023-02-07T03:41:43.464Z,19.99
2023-02-07T03:42:43.496Z,19.94
2023-02-07T03:43:43.528Z,19.86
2023-02-07T03:44:43.604Z,19.85
2023-02-07T03:45:43.690Z,19.87
2023-02-07T03:46:43.807Z,19.85
2023-02-07T03:47:43.764Z,19.85
2023-02-07T03:48:43.830Z,19.80
2023-02-07T03:49:43.853Z,19.87
2023-02-07T03:50:43.920Z,19.83
2023-02-07T03:51:43.978Z,19.78
2023-02-07T03:52:43.946Z,19.74
2023-02-07T03:53:44.005Z,19.77
2023-02-07T03:54:44.082Z,19.78
2023-02-07T03:55:44.092Z,19.74
2023-02-07T03:56:44.184Z,19.74
2023-02-07T03:57:44.257Z,19.68
2023-02-07T03:58:44.226Z,19.74
2023-02-07T03:59:44.259Z,19.71
2023-02-07T04:00:44.362Z,19.71
2023-02-07T04:01:44.311Z,19.73
2023-02-07T04:02:44.328Z,19.70
2023-02-07T04:03:44.383Z,19.67
2023-02-07T04:04:44.436Z,19.68
2023-02-07T04:05:44.452Z,19.65
2023-02-07T04:06:44.470Z,19.61
2023-02-07T04:07:44.487Z,19.57
2023-02-07T04:08:44.527Z,19.67
2023-02-07T04:09:44.522Z,19.65
2023-02-07T04:10:44.567Z,19.65
2023-02-07T04:11:44.592Z,19.58
2023-02-07T04:12:44.597Z,19.64
2023-02-07T04:13:44.631Z,19.65
2023-02-07T04:14:44.631Z,19.64
2023-02-07T04:15:44.663Z,19.62
2023-02-07T04:16:44.656Z,19.58
2023-02-07T04:17:44.674Z,19.55
2023-02-07T04:18:44.679Z,19.61
2023-02-07T04:19:44.740Z,19.56
2023-02-07T04:20:44.717Z,19.60
2023-02-07T04:21:44.760Z,19.56
2023-02-07T04:22:44.744Z,19.56
2023-02-07T04:23:44.729Z,19.51
2023-02-07T04:24:44.763Z,19.49
2023-02-07T04:25:44.770Z,19.55
2023-02-07T04:26:44.767Z,19.47
2023-02-07T04:27:44.757Z,19.47
2023-02-07T04:28:44.755Z,19.57
2023-02-07T04:29:44.764Z,19.52
2023-02-07T04:30:44.833Z,19.54
2023-02-07T04:31:44.803Z,19.49
2023-02-07T04:32:44.806Z,19.48
2023-02-07T04:33:44.825Z,19.46
2023-02-07T04:34:44.798Z,19.51
2023-02-07T04:35:44.790Z,19.47
2023-02-07T04:36:44.800Z,19.49
2023-02-07T04:37:44.816Z,19.40
2023-02-07T04:38:44.820Z,19.48
2023-02-07T04:39:44.856Z,19.42
2023-02-07T04:40:44.850Z,19.45
2023-02-07T04:41:44.841Z,19.45
2023-02-07T04:42:44.843Z,19.44
2023-02-07T04:43:44.859Z,19.43
2023-02-07T04:44:44.905Z,19.42
2023-02-07T04:45:44.910Z,19.42
2023-02-07T04:46:44.912Z,19.36
2023-02-07T04:47:44.916Z,19.36
2023-02-07T04:48:44.898Z,19.40
2023-02-07T04:49:44.925Z,19.37
2023-02-07T04:50:44.936Z,19.39
2023-02-07T04:51:44.959Z,19.35
2023-02-07T04:52:44.956Z,19.39
2023-02-07T04:53:44.977Z,19.33
2023-02-07T04:54:44.998Z,19.35
2023-02-07T04:55:45.012Z,19.33
2023-02-07T04:56:45.029Z,19.35
2023-02-07T04:57:45.041Z,19.39
2023-02-07T04:58:45.057Z,19.36
2023-02-07T04:59:45.075Z,19.37
2023-02-07T05:00:45.058Z,19.33
2023-02-07T05:01:45.105Z,19.33
2023-02-07T05:02:45.106Z,19.37
2023-02-07T05:03:45.169Z,19.36
2023-02-07T05:04:45.173Z,19.35
2023-02-07T05:05:45.171Z,19.31
2023-02-07T05:06:45.205Z,19.30
2023-02-07T05:07:45.206Z,19.31
2023-02-07T05:08:45.264Z,19.30
2023-02-07T05:09:45.320Z,19.31
2023-02-07T05:10:45.277Z,19.30
2023-02-07T05:11:45.325Z,19.30
2023-02-07T05:12:45.334Z,19.30
2023-02-07T05:13:45.400Z,19.34
2023-02-07T05:14:45.400Z,19.30
2023-02-07T05:15:45.435Z,19.30
2023-02-07T05:16:45.604Z,19.33
2023-02-07T05:17:45.467Z,19.34
2023-02-07T05:18:45.538Z,19.33
2023-02-07T05:19:45.571Z,19.33
2023-02-07T05:20:45.609Z,19.30
2023-02-07T05:21:45.618Z,19.31
2023-02-07T05:22:45.669Z,19.33
2023-02-07T05:23:45.693Z,19.37
2023-02-07T05:24:45.723Z,19.34
2023-02-07T05:25:45.767Z,19.31
2023-02-07T05:26:45.789Z,19.33
2023-02-07T05:27:45.852Z,19.34
2023-02-07T05:28:45.863Z,19.34
2023-02-07T05:29:45.927Z,19.31
2023-02-07T05:30:46.033Z,19.33
2023-02-07T05:31:46.096Z,19.31
2023-02-07T05:32:45.968Z,19.31
2023-02-07T05:33:46.001Z,19.32
2023-02-07T05:34:46.025Z,19.29
2023-02-07T05:35:46.122Z,19.33
2023-02-07T05:36:46.126Z,19.36
2023-02-07T05:37:46.133Z,19.33
2023-02-07T05:38:46.194Z,19.39
2023-02-07T05:39:46.202Z,19.31
2023-02-07T05:40:46.243Z,19.33
2023-02-07T05:41:46.260Z,19.32
2023-02-07T05:42:46.292Z,19.31
2023-02-07T05:43:46.325Z,19.28
2023-02-07T05:44:46.342Z,19.39
2023-02-07T05:45:46.396Z,19.33
2023-02-07T05:46:46.388Z,19.25
2023-02-07T05:47:46.389Z,19.28
2023-02-07T05:48:46.445Z,19.25
2023-02-07T05:49:46.479Z,19.31
2023-02-07T05:50:46.488Z,19.29
2023-02-07T05:51:46.519Z,19.28
2023-02-07T05:52:46.575Z,19.30
2023-02-07T05:53:46.606Z,19.25
2023-02-07T05:54:46.665Z,19.29
2023-02-07T05:55:46.700Z,19.26
2023-02-07T05:56:46.716Z,19.23
2023-02-07T05:57:46.716Z,19.29
2023-02-07T05:58:46.787Z,19.31
2023-02-07T05:59:46.837Z,19.25
2023-02-07T06:00:53.816Z,19.26
2023-02-07T06:01:46.831Z,19.28
2023-02-07T06:02:46.853Z,19.22
2023-02-07T06:03:46.842Z,19.22
2023-02-07T06:04:46.843Z,19.28
2023-02-07T06:05:46.794Z,19.26
2023-02-07T06:06:46.800Z,19.26
2023-02-07T06:07:46.761Z,19.26
2023-02-07T06:08:46.789Z,19.23
2023-02-07T06:09:46.820Z,19.31
2023-02-07T06:10:46.790Z,19.23
2023-02-07T06:11:46.765Z,19.26
2023-02-07T06:12:46.742Z,19.23
2023-02-07T06:13:46.736Z,19.20
2023-02-07T06:14:46.744Z,19.20
2023-02-07T06:15:46.749Z,19.17
2023-02-07T06:16:46.748Z,19.20
2023-02-07T06:17:46.754Z,19.17
2023-02-07T06:18:46.721Z,19.22
2023-02-07T06:19:46.714Z,19.22
2023-02-07T06:20:46.722Z,19.19
2023-02-07T06:21:47.150Z,19.16
2023-02-07T06:22:46.660Z,19.16
2023-02-07T06:23:46.675Z,19.19
2023-02-07T06:24:46.691Z,19.14
2023-02-07T06:25:46.663Z,19.16
2023-02-07T06:26:46.703Z,19.19
2023-02-07T06:27:46.688Z,19.19
2023-02-07T06:28:46.670Z,19.20
2023-02-07T06:29:46.618Z,19.16
2023-02-07T06:30:46.735Z,19.16
2023-02-07T06:31:46.704Z,19.20
2023-02-07T06:32:46.642Z,19.20
2023-02-07T06:33:46.694Z,19.17
2023-02-07T06:34:46.726Z,19.11
2023-02-07T06:35:47.313Z,19.23
2023-02-07T06:36:46.832Z,19.32
2023-02-07T06:38:46.955Z,19.64
2023-02-07T06:39:46.984Z,19.92
2023-02-07T06:40:47.238Z,19.93
2023-02-07T06:41:47.074Z,20.07
2023-02-07T06:42:47.033Z,20.07
2023-02-07T06:43:47.758Z,20.66
2023-02-07T06:44:47.139Z,20.63
2023-02-07T06:46:47.179Z,20.88
2023-02-07T06:47:47.201Z,20.98
2023-02-07T06:48:47.159Z,20.87
2023-02-07T06:49:47.160Z,21.07
2023-02-07T06:50:47.176Z,21.24
2023-02-07T06:51:47.114Z,21.48
2023-02-07T06:52:47.123Z,21.74
2023-02-07T06:53:47.125Z,21.61
2023-02-07T06:54:47.152Z,21.40
2023-02-07T06:56:47.115Z,20.61
2023-02-07T06:57:47.134Z,20.56
2023-02-07T06:58:47.096Z,20.39
2023-02-07T06:59:47.075Z,19.91
2023-02-07T07:00:47.289Z,19.59
2023-02-07T07:01:49.400Z,19.26
2023-02-07T07:02:47.184Z,19.29
2023-02-07T07:03:47.157Z,19.13
2023-02-07T07:05:47.344Z,19.03
2023-02-07T07:06:47.233Z,19.08
2023-02-07T07:07:47.303Z,18.82
2023-02-07T07:08:47.283Z,18.70
2023-02-07T07:09:47.294Z,18.58
2023-02-07T07:10:47.371Z,18.59
2023-02-07T07:11:47.371Z,18.58
2023-02-07T07:12:47.372Z,18.44
2023-02-07T07:13:47.404Z,18.45
2023-02-07T07:14:47.436Z,18.59
2023-02-07T07:15:47.525Z,18.56
2023-02-07T07:16:47.494Z,18.69
2023-02-07T07:17:47.565Z,18.41
2023-02-07T07:18:47.563Z,18.49
2023-02-07T07:19:47.565Z,18.69
2023-02-07T07:20:47.648Z,18.66
2023-02-07T07:21:47.585Z,18.56
2023-02-07T07:22:47.652Z,18.46
2023-02-07T07:23:47.665Z,18.48
2023-02-07T07:24:47.780Z,18.34
2023-02-07T07:25:47.719Z,18.44
2023-02-07T07:26:49.992Z,18.35
2023-02-07T07:27:47.740Z,18.32
2023-02-07T07:28:47.749Z,18.34
2023-02-07T07:29:47.741Z,18.63
2023-02-07T07:31:47.756Z,18.43
2023-02-07T07:32:47.701Z,18.46
2023-02-07T07:33:47.719Z,18.39
2023-02-07T07:37:47.692Z,18.35
2023-02-07T07:38:48.015Z,18.39
2023-02-07T07:39:47.720Z,17.73
2023-02-07T07:40:47.766Z,16.50
2023-02-07T07:41:47.693Z,17.82
2023-02-07T07:42:47.789Z,17.75
2023-02-07T07:43:47.731Z,17.90
2023-02-07T07:44:47.793Z,18.18
2023-02-07T07:45:47.799Z,18.27
2023-02-07T07:46:47.841Z,18.47
2023-02-07T07:47:47.810Z,18.53
2023-02-07T07:48:47.817Z,18.56
2023-02-07T07:49:47.943Z,18.68
2023-02-07T07:50:48.344Z,18.77
2023-02-07T07:51:47.840Z,18.96
2023-02-07T07:52:47.913Z,19.11
2023-02-07T07:53:47.856Z,19.15
2023-02-07T07:54:47.853Z,19.08
2023-02-07T07:55:47.914Z,19.20
2023-02-07T07:56:47.969Z,19.26
2023-02-07T07:57:48.037Z,19.22
2023-02-07T07:58:48.111Z,19.26
2023-02-07T07:59:48.141Z,19.31
2023-02-07T08:00:48.269Z,19.24
2023-02-07T08:01:48.254Z,19.25
2023-02-07T08:02:48.336Z,19.30
2023-02-07T08:03:48.385Z,19.29
2023-02-07T08:04:48.452Z,19.30
2023-02-07T08:05:48.481Z,19.36
2023-02-07T08:06:48.557Z,19.31
2023-02-07T08:08:48.666Z,19.41
2023-02-07T08:09:48.741Z,19.61
2023-02-07T08:10:48.763Z,20.07
2023-02-07T08:11:48.833Z,19.99
2023-02-07T08:12:48.863Z,20.14
2023-02-07T08:13:48.907Z,20.37
2023-02-07T08:14:48.985Z,20.34
2023-02-07T08:15:49.039Z,20.38
2023-02-07T08:16:49.108Z,20.48
2023-02-07T08:17:49.132Z,20.49
2023-02-07T08:18:49.194Z,20.57
2023-02-07T08:19:49.226Z,20.72
2023-02-07T08:20:49.264Z,20.76
2023-02-07T08:21:49.311Z,20.73
2023-02-07T08:22:49.335Z,20.94
2023-02-07T08:23:49.355Z,21.03
2023-02-07T08:24:49.388Z,21.06
2023-02-07T08:25:49.462Z,21.06
2023-02-07T08:26:49.870Z,21.14
2023-02-07T08:27:49.517Z,21.23
2023-02-07T08:28:49.530Z,21.29
2023-02-07T08:29:49.583Z,21.30
2023-02-07T08:30:49.621Z,21.52
2023-02-07T08:31:49.836Z,21.04
2023-02-07T08:32:49.657Z,20.17
2023-02-07T08:33:49.711Z,19.69
2023-02-07T08:34:49.733Z,19.90
2023-02-07T08:35:49.823Z,19.16
2023-02-07T08:36:50.271Z,18.31
2023-02-07T08:37:49.909Z,18.08
2023-02-07T08:38:49.945Z,18.03
2023-02-07T08:39:49.912Z,17.87
2023-02-07T08:40:49.981Z,17.80
2023-02-07T08:41:50.289Z,17.66
2023-02-07T08:42:49.931Z,16.81
2023-02-07T08:43:50.033Z,17.22
2023-02-07T08:44:50.002Z,17.23
2023-02-07T08:45:50.117Z,17.70
2023-02-07T08:46:50.265Z,17.95
2023-02-07T08:47:49.957Z,17.94
2023-02-07T08:48:50.020Z,17.23
2023-02-07T08:49:50.018Z,17.12
2023-02-07T08:50:49.978Z,16.98
2023-02-07T08:51:50.255Z,17.20
2023-02-07T08:52:50.066Z,16.98
2023-02-07T08:53:50.041Z,16.72
2023-02-07T08:54:50.059Z,16.59
2023-02-07T08:55:50.072Z,16.31
2023-02-07T08:56:50.061Z,16.91
2023-02-07T08:57:50.072Z,17.03
2023-02-07T08:58:50.109Z,16.96
2023-02-07T08:59:50.123Z,15.66
2023-02-07T09:00:50.171Z,16.54
2023-02-07T09:01:50.293Z,16.17
2023-02-07T09:02:50.166Z,16.52
2023-02-07T09:03:50.176Z,16.52
2023-02-07T09:04:50.181Z,16.54
2023-02-07T09:05:50.191Z,16.58
2023-02-07T09:06:50.205Z,16.46
2023-02-07T09:07:50.212Z,16.29
2023-02-07T09:08:50.247Z,16.20
2023-02-07T09:09:50.278Z,15.75
2023-02-07T09:10:50.290Z,15.59
2023-02-07T09:11:50.226Z,14.36
2023-02-07T09:12:50.312Z,15.32
2023-02-07T09:13:50.310Z,14.59
2023-02-07T09:14:50.280Z,14.10
2023-02-07T09:16:50.404Z,14.24
2023-02-07T09:17:50.341Z,14.30
2023-02-07T09:18:50.432Z,14.45
2023-02-07T09:19:50.387Z,14.62
2023-02-07T09:20:50.468Z,14.88
2023-02-07T09:21:50.448Z,14.53
2023-02-07T09:22:50.464Z,14.85
2023-02-07T09:23:50.455Z,14.56
2023-02-07T09:24:50.492Z,14.54
2023-02-07T09:25:50.524Z,14.21
2023-02-07T09:26:50.549Z,14.04
2023-02-07T09:27:50.575Z,13.95
2023-02-07T09:28:50.600Z,14.48
2023-02-07T09:29:52.362Z,14.29
2023-02-07T09:30:51.195Z,14.70
2023-02-07T09:31:50.915Z,14.65
2023-02-07T09:32:50.817Z,14.63
2023-02-07T09:33:50.870Z,14.75
2023-02-07T09:34:50.941Z,14.43
2023-02-07T09:35:50.941Z,14.65
2023-02-07T09:36:50.968Z,14.55
2023-02-07T09:37:51.054Z,14.77
2023-02-07T09:38:50.999Z,14.57
2023-02-07T09:39:51.004Z,14.95
2023-02-07T09:40:50.997Z,14.82
2023-02-07T09:41:51.077Z,14.62
2023-02-07T09:42:51.148Z,14.00
2023-02-07T09:43:51.277Z,14.03
2023-02-07T09:44:51.308Z,13.68
2023-02-07T09:45:51.169Z,13.80
2023-02-07T09:46:51.423Z,14.07
2023-02-07T09:47:51.157Z,14.18
2023-02-07T09:48:51.198Z,14.24
2023-02-07T09:49:51.200Z,14.06
2023-02-07T09:50:51.251Z,13.87
2023-02-07T09:51:51.237Z,14.09
2023-02-07T09:52:51.271Z,14.12
2023-02-07T09:53:51.248Z,14.62
2023-02-07T09:54:51.307Z,14.45
2023-02-07T09:55:51.330Z,14.79
2023-02-07T09:56:51.399Z,14.37
2023-02-07T09:57:51.401Z,14.19
2023-02-07T09:58:51.432Z,14.24
2023-02-07T09:59:51.515Z,13.84
2023-02-07T10:00:51.509Z,13.65
2023-02-07T10:01:51.513Z,14.27
2023-02-07T10:02:51.862Z,13.90
2023-02-07T10:03:51.621Z,14.92
2023-02-07T10:04:51.677Z,15.01
2023-02-07T10:05:51.694Z,15.24
2023-02-07T10:06:51.704Z,15.18
2023-02-07T10:07:51.865Z,14.90
2023-02-07T10:08:51.759Z,15.35
2023-02-07T10:09:51.790Z,14.45
2023-02-07T10:10:51.829Z,15.05
2023-02-07T10:11:51.889Z,14.44
2023-02-07T10:12:51.919Z,14.90
2023-02-07T10:13:51.908Z,14.53
2023-02-07T10:14:51.948Z,15.42
2023-02-07T10:15:52.117Z,14.83
2023-02-07T10:16:52.010Z,14.86
2023-02-07T10:17:52.041Z,15.23
2023-02-07T10:18:52.057Z,14.90
2023-02-07T10:19:52.098Z,14.90
2023-02-07T10:21:52.175Z,14.56
2023-02-07T10:22:52.178Z,15.06
2023-02-07T10:23:52.194Z,14.22
2023-02-07T10:24:52.241Z,14.98
2023-02-07T10:25:52.291Z,15.15
2023-02-07T10:26:52.336Z,15.35
2023-02-07T10:27:52.312Z,14.69
2023-02-07T10:28:52.306Z,13.94
2023-02-07T10:29:52.319Z,13.34
2023-02-07T10:30:52.532Z,13.27
2023-02-07T10:31:52.433Z,14.60
2023-02-07T10:32:52.444Z,14.69
2023-02-07T10:33:52.451Z,14.97
2023-02-07T10:34:52.580Z,14.66
2023-02-07T10:35:52.500Z,15.21
2023-02-07T10:36:52.503Z,14.47
2023-02-07T10:37:52.515Z,15.00
2023-02-07T10:39:03.328Z,14.96
2023-02-07T10:39:53.506Z,15.41
2023-02-07T10:40:52.554Z,15.49
2023-02-07T10:41:52.521Z,15.55
2023-02-07T10:42:52.517Z,24.98
2023-02-07T10:43:52.476Z,17.14
2023-02-07T10:44:52.534Z,16.43
2023-02-07T10:46:00.382Z,15.85
2023-02-07T10:46:53.543Z,15.58
2023-02-07T10:47:52.908Z,15.64
2023-02-07T10:48:52.558Z,15.35
2023-02-07T10:49:52.462Z,15.12
2023-02-07T10:50:52.467Z,14.94
2023-02-07T10:51:52.468Z,15.03
2023-02-07T10:52:52.494Z,15.14
2023-02-07T10:53:55.364Z,15.66
2023-02-07T10:54:52.437Z,15.46
2023-02-07T10:55:52.404Z,15.38
2023-02-07T10:57:59.041Z,14.50
2023-02-07T10:58:53.447Z,14.09
2023-02-07T11:01:52.412Z,13.72
2023-02-07T11:26:52.447Z,13.80
2023-02-07T11:27:52.470Z,14.01
2023-02-07T11:28:52.467Z,12.71
2023-02-07T11:29:52.574Z,12.47
2023-02-07T11:30:52.662Z,12.79
2023-02-07T11:31:52.613Z,12.42
2023-02-07T11:32:52.860Z,12.44
2023-02-07T11:33:52.659Z,12.53
2023-02-07T11:34:52.697Z,14.70
2023-02-07T11:35:52.732Z,14.54
2023-02-07T11:36:52.794Z,15.89
2023-02-07T11:37:53.395Z,16.71
2023-02-07T11:38:52.831Z,16.59
2023-02-07T11:39:52.911Z,17.16
2023-02-07T11:40:52.850Z,17.87
2023-02-07T11:41:52.814Z,18.22
2023-02-07T11:42:52.881Z,18.74
2023-02-07T11:43:52.856Z,18.48
2023-02-07T11:44:52.938Z,18.52
2023-02-07T11:45:53.057Z,18.47
2023-02-07T11:46:53.078Z,18.19
2023-02-07T11:47:53.407Z,18.20
2023-02-07T11:48:53.095Z,18.28
2023-02-07T11:49:53.182Z,18.12
2023-02-07T11:50:53.180Z,16.99
2023-02-07T11:51:53.215Z,16.93
2023-02-07T11:52:54.869Z,16.66
2023-02-07T11:53:53.321Z,17.67
2023-02-07T11:54:53.334Z,17.06
2023-02-07T11:55:53.313Z,17.29
2023-02-07T11:56:53.370Z,17.67
2023-02-07T11:57:53.376Z,17.85
2023-02-07T11:58:53.941Z,17.77
2023-02-07T11:59:53.421Z,17.97
2023-02-07T12:00:53.469Z,18.02
2023-02-07T12:01:53.510Z,17.98
2023-02-07T12:02:53.470Z,17.95
2023-02-07T12:03:53.478Z,17.99
2023-02-07T12:04:53.465Z,18.03
2023-02-07T12:05:53.513Z,18.09
2023-02-07T12:06:53.507Z,18.06
2023-02-07T12:07:53.503Z,17.98
2023-02-07T12:08:53.921Z,17.94
2023-02-07T12:09:53.457Z,17.92
2023-02-07T12:10:53.470Z,18.02
2023-02-07T12:11:53.455Z,17.97
2023-02-07T12:12:53.492Z,17.99
2023-02-07T12:13:53.471Z,17.88
2023-02-07T12:14:53.552Z,17.84
2023-02-07T12:15:53.596Z,17.87
2023-02-07T12:16:53.566Z,17.67
2023-02-07T12:17:53.564Z,17.54
2023-02-07T12:18:53.631Z,17.36
2023-02-07T12:19:53.703Z,17.37
2023-02-07T12:20:53.757Z,17.29
2023-02-07T12:21:53.805Z,17.54
2023-02-07T12:23:07.770Z,17.39
2023-02-07T12:23:54.800Z,17.57
2023-02-07T12:24:53.776Z,17.50
2023-02-07T12:25:53.754Z,17.58
2023-02-07T12:26:53.738Z,17.50
2023-02-07T12:27:53.766Z,17.45
2023-02-07T12:29:04.021Z,17.72
2023-02-07T12:29:54.734Z,17.54
2023-02-07T12:30:53.788Z,17.91
2023-02-07T12:31:53.834Z,17.97
2023-02-07T12:32:53.811Z,17.73
2023-02-07T12:33:54.019Z,17.83
2023-02-07T12:34:53.962Z,17.83
2023-02-07T12:35:57.503Z,17.87
2023-02-07T12:36:53.706Z,17.83
2023-02-07T12:37:53.705Z,17.76
2023-02-07T12:38:53.934Z,17.79
2023-02-07T12:39:53.657Z,17.75
2023-02-07T12:40:53.688Z,17.70
2023-02-07T12:41:53.645Z,17.75
2023-02-07T12:42:53.657Z,17.75
2023-02-07T12:43:53.755Z,17.72
2023-02-07T12:44:53.612Z,17.70
2023-02-07T12:45:53.654Z,17.70
2023-02-07T12:46:53.607Z,17.67
2023-02-07T12:47:53.598Z,18.46
2023-02-07T12:48:53.628Z,18.86
2023-02-07T12:49:53.608Z,19.37
2023-02-07T12:50:53.574Z,20.30
2023-02-07T12:51:53.570Z,20.06
2023-02-07T12:52:53.615Z,20.41
2023-02-07T12:53:53.640Z,20.73
2023-02-07T12:54:53.681Z,22.91
2023-02-07T12:55:53.674Z,22.32
2023-02-07T12:56:53.724Z,21.94
2023-02-07T12:57:53.705Z,21.54
2023-02-07T12:58:53.754Z,21.63
2023-02-07T12:59:53.736Z,21.76
2023-02-07T13:00:53.801Z,21.94
2023-02-07T13:01:53.884Z,22.11
2023-02-07T13:02:53.791Z,22.20
2023-02-07T13:03:53.827Z,22.30
2023-02-07T13:04:53.917Z,22.47
2023-02-07T13:05:53.977Z,22.61
2023-02-07T13:06:53.986Z,22.67
2023-02-07T13:07:54.061Z,22.78
2023-02-07T13:08:54.136Z,22.81
2023-02-07T13:09:54.217Z,22.93
2023-02-07T13:10:54.182Z,22.84
2023-02-07T13:11:54.258Z,22.92
2023-02-07T13:12:54.333Z,22.94
2023-02-07T13:13:54.373Z,22.98
2023-02-07T13:14:54.416Z,22.92
2023-02-07T13:15:54.504Z,22.84
2023-02-07T13:16:54.574Z,22.92
2023-02-07T13:17:54.612Z,22.95
2023-02-07T13:18:54.684Z,22.87
2023-02-07T13:19:54.737Z,22.88
2023-02-07T13:20:54.794Z,22.81
2023-02-07T13:21:54.834Z,22.84
2023-02-07T13:22:54.908Z,22.79
2023-02-07T13:23:55.245Z,22.84
2023-02-07T13:24:54.990Z,22.88
2023-02-07T13:25:54.994Z,22.91
2023-02-07T13:26:55.029Z,22.93
2023-02-07T13:27:55.089Z,22.88
2023-02-07T13:28:55.118Z,22.88
2023-02-07T13:29:55.153Z,22.94
2023-02-07T13:30:55.222Z,22.94
2023-02-07T13:31:55.339Z,23.12
2023-02-07T13:32:55.250Z,23.08
2023-02-07T13:33:55.280Z,23.02
2023-02-07T13:34:55.288Z,23.29
2023-02-07T13:35:55.342Z,23.40
2023-02-07T13:36:57.254Z,23.35
2023-02-07T13:37:55.350Z,23.32
2023-02-07T13:38:55.354Z,23.31
2023-02-07T13:39:55.369Z,23.31
2023-02-07T13:40:55.372Z,23.29
2023-02-07T13:41:55.341Z,23.28
2023-02-07T13:42:55.308Z,23.43
2023-02-07T13:44:08.015Z,23.28
2023-02-07T13:44:56.333Z,23.34
2023-02-07T13:45:55.321Z,23.49
2023-02-07T13:46:55.329Z,23.46
2023-02-07T13:47:55.291Z,23.53
2023-02-07T13:48:55.349Z,23.68
2023-02-07T13:49:55.294Z,23.69
2023-02-07T13:50:55.306Z,23.78
2023-02-07T13:51:55.286Z,23.75
2023-02-07T13:52:55.358Z,24.09
2023-02-07T13:53:55.433Z,23.95
2023-02-07T13:54:55.489Z,24.02
2023-02-07T13:55:55.577Z,24.32
2023-02-07T13:56:55.689Z,24.49
2023-02-07T13:57:55.693Z,24.49
2023-02-07T13:58:55.689Z,24.22
2023-02-07T13:59:55.776Z,24.28
2023-02-07T14:00:55.846Z,24.25
2023-02-07T14:01:55.875Z,24.45
2023-02-07T14:02:55.907Z,24.49
2023-02-07T14:03:55.963Z,24.45
2023-02-07T14:04:56.031Z,24.33
2023-02-07T14:05:56.090Z,24.49
2023-02-07T14:06:56.208Z,24.52
2023-02-07T14:07:56.186Z,24.53
2023-02-07T14:08:56.276Z,24.57
2023-02-07T14:09:56.303Z,24.66
2023-02-07T14:10:56.371Z,24.82
2023-02-07T14:11:56.408Z,24.69
2023-02-07T14:12:56.465Z,24.95
2023-02-07T14:13:56.535Z,24.85
2023-02-07T14:15:03.203Z,24.90
2023-02-07T14:15:57.606Z,24.96
2023-02-07T14:16:56.551Z,25.00
2023-02-07T14:17:56.545Z,25.13
2023-02-07T14:18:56.553Z,25.12
2023-02-07T14:19:56.516Z,25.11
2023-02-07T14:20:56.528Z,25.16
2023-02-07T14:21:56.541Z,25.18
2023-02-07T14:22:56.541Z,25.25
2023-02-07T14:23:56.549Z,25.29
2023-02-07T14:24:56.509Z,25.22
2023-02-07T14:25:56.608Z,25.38
2023-02-07T14:26:56.680Z,25.41
2023-02-07T14:27:56.777Z,25.60
2023-02-07T14:28:58.503Z,25.60
2023-02-07T14:29:56.944Z,25.53
2023-02-07T14:30:56.979Z,25.67
2023-02-07T14:31:57.044Z,25.70
2023-02-07T14:32:56.997Z,25.66
2023-02-07T14:33:57.061Z,25.70
2023-02-07T14:34:57.089Z,25.92
2023-02-07T14:35:57.113Z,25.99
2023-02-07T14:36:57.163Z,25.99
2023-02-07T14:37:57.237Z,26.21
2023-02-07T14:38:57.325Z,26.14
2023-02-07T14:39:57.343Z,26.08
2023-02-07T14:41:09.474Z,26.12
2023-02-07T14:41:58.423Z,26.26
2023-02-07T14:42:57.428Z,26.28
2023-02-07T14:44:08.583Z,26.47
2023-02-07T14:44:58.370Z,26.43
2023-02-07T14:45:57.397Z,26.57
2023-02-07T14:46:57.357Z,26.81
2023-02-07T14:47:57.364Z,26.78
2023-02-07T14:48:57.345Z,27.04
2023-02-07T14:49:57.342Z,26.91
2023-02-07T14:50:57.366Z,26.84
2023-02-07T14:51:57.369Z,26.93
2023-02-07T14:52:57.349Z,27.13
2023-02-07T14:53:57.403Z,27.17
2023-02-07T14:54:57.453Z,27.06
2023-02-07T14:55:57.485Z,27.09
2023-02-07T14:56:57.626Z,27.01
2023-02-07T14:57:57.684Z,27.11
2023-02-07T14:58:57.688Z,27.16
2023-02-07T14:59:57.790Z,27.21
2023-02-07T15:00:57.826Z,27.29
2023-02-07T15:01:57.889Z,27.40
2023-02-07T15:02:57.996Z,27.31
2023-02-07T15:03:57.953Z,27.51
2023-02-07T15:04:58.047Z,28.21
2023-02-07T15:05:58.075Z,27.17
2023-02-07T15:06:58.034Z,26.64
2023-02-07T15:07:58.011Z,26.32
2023-02-07T15:08:58.030Z,26.31
2023-02-07T15:09:58.038Z,26.30
2023-02-07T15:10:58.097Z,26.07
2023-02-07T15:12:06.973Z,25.74
2023-02-07T15:12:59.025Z,25.79
2023-02-07T15:13:58.021Z,24.95
2023-02-07T15:14:58.020Z,25.32
2023-02-07T15:15:58.061Z,25.39
2023-02-07T15:16:58.038Z,25.56
2023-02-07T15:17:57.992Z,25.37
2023-02-07T15:18:57.965Z,25.28
2023-02-07T15:19:57.998Z,24.60
2023-02-07T15:20:58.765Z,24.30
2023-02-07T15:21:57.975Z,24.56
2023-02-07T15:22:57.943Z,25.01
2023-02-07T15:23:57.971Z,24.88
2023-02-07T15:24:57.990Z,24.51
2023-02-07T15:25:57.951Z,23.94
2023-02-07T15:26:58.468Z,23.57
2023-02-07T15:27:58.014Z,23.98
2023-02-07T15:28:57.896Z,23.32